sensor_id;sensor_type;location;lat;lon;timestamp;P1;durP1;ratioP1;P2;durP2;ratioP2
11522;SDS011;70090;43.208;27.904;2023-11-18T00:02:24;24.47;;;21.77;;
11522;SDS011;70090;43.208;27.904;2023-11-18T00:04:51;23.90;;;19.53;;
11522;SDS011;70090;43.208;27.904;2023-11-18T00:07:18;22.90;;;19.33;;
11522;SDS011;70090;43.208;27.904;2023-11-18T00:09:45;22.23;;;19.93;;
11522;SDS011;70090;43.208;27.904;2023-11-18T00:12:13;22.50;;;19.17;;
11522;SDS011;70090;43.208;27.904;2023-11-18T00:14:40;21.97;;;19.60;;
11522;SDS011;70090;43.208;27.904;2023-11-18T00:17:07;22.10;;;19.70;;
11522;SDS011;70090;43.208;27.904;2023-11-18T00:19:35;22.67;;;19.07;;
11522;SDS011;70090;43.208;27.904;2023-11-18T00:22:02;21.67;;;17.97;;
11522;SDS011;70090;43.208;27.904;2023-11-18T00:24:31;20.03;;;17.93;;
11522;SDS011;70090;43.208;27.904;2023-11-18T00:26:59;19.10;;;17.10;;
11522;SDS011;70090;43.208;27.904;2023-11-18T00:29:32;19.37;;;17.07;;
11522;SDS011;70090;43.208;27.904;2023-11-18T00:31:59;21.27;;;18.07;;
11522;SDS011;70090;43.208;27.904;2023-11-18T00:34:26;21.30;;;18.70;;
11522;SDS011;70090;43.208;27.904;2023-11-18T00:36:54;26.57;;;21.53;;
11522;SDS011;70090;43.208;27.904;2023-11-18T00:39:22;27.60;;;23.43;;
11522;SDS011;70090;43.208;27.904;2023-11-18T00:41:49;28.73;;;23.87;;
11522;SDS011;70090;43.208;27.904;2023-11-18T00:44:16;33.63;;;27.83;;
11522;SDS011;70090;43.208;27.904;2023-11-18T00:46:44;36.97;;;30.03;;
11522;SDS011;70090;43.208;27.904;2023-11-18T00:49:11;40.77;;;29.30;;
11522;SDS011;70090;43.208;27.904;2023-11-18T00:51:38;36.43;;;28.53;;
11522;SDS011;70090;43.208;27.904;2023-11-18T00:54:06;34.07;;;25.97;;
11522;SDS011;70090;43.208;27.904;2023-11-18T00:56:33;27.10;;;21.57;;
11522;SDS011;70090;43.208;27.904;2023-11-18T00:59:00;23.50;;;19.20;;
11522;SDS011;70090;43.208;27.904;2023-11-18T01:01:27;17.67;;;14.83;;
11522;SDS011;70090;43.208;27.904;2023-11-18T01:03:55;17.47;;;13.60;;
11522;SDS011;70090;43.208;27.904;2023-11-18T01:06:24;14.80;;;12.03;;
11522;SDS011;70090;43.208;27.904;2023-11-18T01:08:51;12.17;;;10.97;;
11522;SDS011;70090;43.208;27.904;2023-11-18T01:11:19;12.00;;;10.00;;
11522;SDS011;70090;43.208;27.904;2023-11-18T01:13:47;14.03;;;11.23;;
11522;SDS011;70090;43.208;27.904;2023-11-18T01:16:14;12.87;;;10.80;;
11522;SDS011;70090;43.208;27.904;2023-11-18T01:18:42;12.83;;;10.77;;
11522;SDS011;70090;43.208;27.904;2023-11-18T01:21:11;13.07;;;10.60;;
11522;SDS011;70090;43.208;27.904;2023-11-18T01:23:38;11.57;;;9.70;;
11522;SDS011;70090;43.208;27.904;2023-11-18T01:26:08;12.23;;;10.13;;
11522;SDS011;70090;43.208;27.904;2023-11-18T01:28:37;11.00;;;9.90;;
11522;SDS011;70090;43.208;27.904;2023-11-18T01:31:06;12.40;;;10.53;;
11522;SDS011;70090;43.208;27.904;2023-11-18T01:33:34;13.03;;;10.57;;
11522;SDS011;70090;43.208;27.904;2023-11-18T01:36:02;12.27;;;11.03;;
11522;SDS011;70090;43.208;27.904;2023-11-18T01:38:31;13.03;;;11.30;;
11522;SDS011;70090;43.208;27.904;2023-11-18T01:40:58;12.73;;;11.33;;
11522;SDS011;70090;43.208;27.904;2023-11-18T01:43:25;12.57;;;10.60;;
11522;SDS011;70090;43.208;27.904;2023-11-18T01:45:53;12.87;;;11.43;;
11522;SDS011;70090;43.208;27.904;2023-11-18T01:48:19;13.47;;;11.97;;
11522;SDS011;70090;43.208;27.904;2023-11-18T01:50:48;13.43;;;11.70;;
11522;SDS011;70090;43.208;27.904;2023-11-18T01:53:16;20.63;;;13.10;;
11522;SDS011;70090;43.208;27.904;2023-11-18T01:55:45;15.07;;;12.90;;
11522;SDS011;70090;43.208;27.904;2023-11-18T01:58:14;12.90;;;11.50;;
11522;SDS011;70090;43.208;27.904;2023-11-18T02:00:45;13.80;;;12.30;;
11522;SDS011;70090;43.208;27.904;2023-11-18T02:03:13;14.33;;;12.83;;
11522;SDS011;70090;43.208;27.904;2023-11-18T02:05:39;13.30;;;11.90;;
11522;SDS011;70090;43.208;27.904;2023-11-18T02:08:07;13.10;;;11.70;;
11522;SDS011;70090;43.208;27.904;2023-11-18T02:10:35;13.57;;;12.17;;
11522;SDS011;70090;43.208;27.904;2023-11-18T02:13:21;13.47;;;11.97;;
11522;SDS011;70090;43.208;27.904;2023-11-18T02:15:52;15.40;;;13.20;;
11522;SDS011;70090;43.208;27.904;2023-11-18T02:18:22;14.67;;;13.10;;
11522;SDS011;70090;43.208;27.904;2023-11-18T02:20:52;15.53;;;13.90;;
11522;SDS011;70090;43.208;27.904;2023-11-18T02:23:19;14.40;;;12.90;;
11522;SDS011;70090;43.208;27.904;2023-11-18T02:25:48;14.67;;;12.90;;
11522;SDS011;70090;43.208;27.904;2023-11-18T02:28:15;15.33;;;13.47;;
11522;SDS011;70090;43.208;27.904;2023-11-18T02:30:43;18.90;;;13.97;;
11522;SDS011;70090;43.208;27.904;2023-11-18T02:33:13;14.23;;;12.17;;
11522;SDS011;70090;43.208;27.904;2023-11-18T02:35:46;15.37;;;12.77;;
11522;SDS011;70090;43.208;27.904;2023-11-18T02:38:18;20.37;;;13.40;;
11522;SDS011;70090;43.208;27.904;2023-11-18T02:40:51;15.80;;;12.80;;
11522;SDS011;70090;43.208;27.904;2023-11-18T02:43:22;16.93;;;13.07;;
11522;SDS011;70090;43.208;27.904;2023-11-18T02:45:50;23.07;;;19.83;;
11522;SDS011;70090;43.208;27.904;2023-11-18T02:48:20;23.03;;;18.70;;
11522;SDS011;70090;43.208;27.904;2023-11-18T02:50:46;17.73;;;14.10;;
11522;SDS011;70090;43.208;27.904;2023-11-18T02:53:13;20.20;;;14.57;;
11522;SDS011;70090;43.208;27.904;2023-11-18T02:55:40;14.67;;;11.97;;
11522;SDS011;70090;43.208;27.904;2023-11-18T02:58:09;16.67;;;14.47;;
11522;SDS011;70090;43.208;27.904;2023-11-18T03:00:36;19.23;;;16.10;;
11522;SDS011;70090;43.208;27.904;2023-11-18T03:03:03;17.63;;;13.20;;
11522;SDS011;70090;43.208;27.904;2023-11-18T03:05:30;18.90;;;13.90;;
11522;SDS011;70090;43.208;27.904;2023-11-18T03:07:58;18.40;;;14.40;;
11522;SDS011;70090;43.208;27.904;2023-11-18T03:10:24;18.67;;;14.77;;
11522;SDS011;70090;43.208;27.904;2023-11-18T03:12:52;15.53;;;13.63;;
11522;SDS011;70090;43.208;27.904;2023-11-18T03:15:21;17.03;;;14.27;;
11522;SDS011;70090;43.208;27.904;2023-11-18T03:17:48;19.27;;;15.37;;
11522;SDS011;70090;43.208;27.904;2023-11-18T03:20:16;20.30;;;16.07;;
11522;SDS011;70090;43.208;27.904;2023-11-18T03:22:43;18.17;;;15.27;;
11522;SDS011;70090;43.208;27.904;2023-11-18T03:25:11;18.23;;;15.53;;
11522;SDS011;70090;43.208;27.904;2023-11-18T03:27:38;18.10;;;16.00;;
11522;SDS011;70090;43.208;27.904;2023-11-18T03:30:05;19.50;;;14.90;;
11522;SDS011;70090;43.208;27.904;2023-11-18T03:32:34;20.67;;;16.97;;
11522;SDS011;70090;43.208;27.904;2023-11-18T03:35:02;19.77;;;17.03;;
11522;SDS011;70090;43.208;27.904;2023-11-18T03:37:29;19.80;;;17.00;;
11522;SDS011;70090;43.208;27.904;2023-11-18T03:39:57;22.10;;;17.63;;
11522;SDS011;70090;43.208;27.904;2023-11-18T03:42:23;21.23;;;16.80;;
11522;SDS011;70090;43.208;27.904;2023-11-18T03:44:50;18.60;;;15.57;;
11522;SDS011;70090;43.208;27.904;2023-11-18T03:47:17;21.93;;;18.50;;
11522;SDS011;70090;43.208;27.904;2023-11-18T03:49:45;21.93;;;18.80;;
11522;SDS011;70090;43.208;27.904;2023-11-18T03:52:12;22.53;;;18.47;;
11522;SDS011;70090;43.208;27.904;2023-11-18T03:54:40;22.17;;;18.27;;
11522;SDS011;70090;43.208;27.904;2023-11-18T03:57:07;24.87;;;21.47;;
11522;SDS011;70090;43.208;27.904;2023-11-18T03:59:34;22.73;;;16.93;;
11522;SDS011;70090;43.208;27.904;2023-11-18T04:02:01;26.93;;;22.80;;
11522;SDS011;70090;43.208;27.904;2023-11-18T04:04:27;28.33;;;23.97;;
11522;SDS011;70090;43.208;27.904;2023-11-18T04:06:56;27.13;;;22.10;;
11522;SDS011;70090;43.208;27.904;2023-11-18T04:09:26;26.13;;;21.33;;
11522;SDS011;70090;43.208;27.904;2023-11-18T04:11:53;27.33;;;20.60;;
11522;SDS011;70090;43.208;27.904;2023-11-18T04:14:20;23.90;;;20.40;;
11522;SDS011;70090;43.208;27.904;2023-11-18T04:16:47;23.47;;;19.33;;
11522;SDS011;70090;43.208;27.904;2023-11-18T04:19:14;20.90;;;18.60;;
11522;SDS011;70090;43.208;27.904;2023-11-18T04:21:41;24.20;;;19.33;;
11522;SDS011;70090;43.208;27.904;2023-11-18T04:24:11;23.57;;;18.40;;
11522;SDS011;70090;43.208;27.904;2023-11-18T04:26:38;20.53;;;16.50;;
11522;SDS011;70090;43.208;27.904;2023-11-18T04:29:05;18.63;;;15.80;;
11522;SDS011;70090;43.208;27.904;2023-11-18T04:31:32;19.00;;;15.10;;
11522;SDS011;70090;43.208;27.904;2023-11-18T04:34:01;18.47;;;15.43;;
11522;SDS011;70090;43.208;27.904;2023-11-18T04:36:29;14.90;;;11.93;;
11522;SDS011;70090;43.208;27.904;2023-11-18T04:38:56;12.57;;;10.83;;
11522;SDS011;70090;43.208;27.904;2023-11-18T04:41:24;14.30;;;11.53;;
11522;SDS011;70090;43.208;27.904;2023-11-18T04:43:51;13.23;;;11.03;;
11522;SDS011;70090;43.208;27.904;2023-11-18T04:46:18;13.07;;;11.17;;
11522;SDS011;70090;43.208;27.904;2023-11-18T04:48:47;13.93;;;11.10;;
11522;SDS011;70090;43.208;27.904;2023-11-18T04:51:14;13.10;;;9.80;;
11522;SDS011;70090;43.208;27.904;2023-11-18T04:53:42;14.50;;;12.67;;
11522;SDS011;70090;43.208;27.904;2023-11-18T04:56:10;14.37;;;12.33;;
11522;SDS011;70090;43.208;27.904;2023-11-18T04:58:39;17.50;;;13.60;;
11522;SDS011;70090;43.208;27.904;2023-11-18T05:01:05;17.73;;;14.50;;
11522;SDS011;70090;43.208;27.904;2023-11-18T05:03:34;17.90;;;14.27;;
11522;SDS011;70090;43.208;27.904;2023-11-18T05:06:01;17.27;;;13.63;;
11522;SDS011;70090;43.208;27.904;2023-11-18T05:08:29;17.73;;;12.60;;
11522;SDS011;70090;43.208;27.904;2023-11-18T05:10:58;16.97;;;12.57;;
11522;SDS011;70090;43.208;27.904;2023-11-18T05:13:25;17.40;;;14.23;;
11522;SDS011;70090;43.208;27.904;2023-11-18T05:15:53;20.97;;;15.43;;
11522;SDS011;70090;43.208;27.904;2023-11-18T05:18:20;17.57;;;13.60;;
11522;SDS011;70090;43.208;27.904;2023-11-18T05:20:47;17.80;;;14.20;;
11522;SDS011;70090;43.208;27.904;2023-11-18T05:23:14;18.73;;;14.63;;
11522;SDS011;70090;43.208;27.904;2023-11-18T05:25:42;19.13;;;12.87;;
11522;SDS011;70090;43.208;27.904;2023-11-18T05:28:09;22.83;;;16.73;;
11522;SDS011;70090;43.208;27.904;2023-11-18T05:30:36;22.13;;;15.43;;
11522;SDS011;70090;43.208;27.904;2023-11-18T05:33:05;26.03;;;18.83;;
11522;SDS011;70090;43.208;27.904;2023-11-18T05:35:32;22.67;;;16.30;;
11522;SDS011;70090;43.208;27.904;2023-11-18T05:38:00;25.17;;;19.10;;
11522;SDS011;70090;43.208;27.904;2023-11-18T05:40:28;23.07;;;17.03;;
11522;SDS011;70090;43.208;27.904;2023-11-18T05:42:55;23.67;;;16.67;;
11522;SDS011;70090;43.208;27.904;2023-11-18T05:45:24;26.87;;;19.80;;
11522;SDS011;70090;43.208;27.904;2023-11-18T05:47:57;21.30;;;15.03;;
11522;SDS011;70090;43.208;27.904;2023-11-18T05:50:25;24.27;;;18.67;;
11522;SDS011;70090;43.208;27.904;2023-11-18T05:52:54;25.27;;;18.77;;
11522;SDS011;70090;43.208;27.904;2023-11-18T05:55:21;22.87;;;17.17;;
11522;SDS011;70090;43.208;27.904;2023-11-18T05:57:48;19.53;;;14.23;;
11522;SDS011;70090;43.208;27.904;2023-11-18T06:00:15;20.17;;;14.57;;
11522;SDS011;70090;43.208;27.904;2023-11-18T06:02:44;20.33;;;15.17;;
11522;SDS011;70090;43.208;27.904;2023-11-18T06:05:11;22.13;;;17.07;;
11522;SDS011;70090;43.208;27.904;2023-11-18T06:07:40;21.83;;;16.60;;
11522;SDS011;70090;43.208;27.904;2023-11-18T06:10:08;20.23;;;15.47;;
11522;SDS011;70090;43.208;27.904;2023-11-18T06:12:37;21.77;;;16.23;;
11522;SDS011;70090;43.208;27.904;2023-11-18T06:15:06;17.20;;;12.70;;
11522;SDS011;70090;43.208;27.904;2023-11-18T06:17:39;20.20;;;15.80;;
11522;SDS011;70090;43.208;27.904;2023-11-18T06:20:07;18.27;;;13.87;;
11522;SDS011;70090;43.208;27.904;2023-11-18T06:22:36;17.87;;;13.73;;
11522;SDS011;70090;43.208;27.904;2023-11-18T06:25:04;16.87;;;13.43;;
11522;SDS011;70090;43.208;27.904;2023-11-18T06:27:33;15.80;;;13.13;;
11522;SDS011;70090;43.208;27.904;2023-11-18T06:30:00;14.87;;;9.43;;
11522;SDS011;70090;43.208;27.904;2023-11-18T06:32:27;12.70;;;11.30;;
11522;SDS011;70090;43.208;27.904;2023-11-18T06:34:56;15.13;;;11.73;;
11522;SDS011;70090;43.208;27.904;2023-11-18T06:37:23;15.70;;;11.13;;
11522;SDS011;70090;43.208;27.904;2023-11-18T06:39:50;12.87;;;10.77;;
11522;SDS011;70090;43.208;27.904;2023-11-18T06:42:19;15.07;;;12.00;;
11522;SDS011;70090;43.208;27.904;2023-11-18T06:44:48;16.97;;;12.27;;
11522;SDS011;70090;43.208;27.904;2023-11-18T06:47:15;15.83;;;11.67;;
11522;SDS011;70090;43.208;27.904;2023-11-18T06:49:44;14.90;;;12.50;;
11522;SDS011;70090;43.208;27.904;2023-11-18T06:52:12;16.27;;;13.77;;
11522;SDS011;70090;43.208;27.904;2023-11-18T06:54:40;13.30;;;9.30;;
11522;SDS011;70090;43.208;27.904;2023-11-18T06:57:07;17.13;;;13.17;;
11522;SDS011;70090;43.208;27.904;2023-11-18T06:59:35;19.73;;;15.83;;
11522;SDS011;70090;43.208;27.904;2023-11-18T07:02:03;22.17;;;17.67;;
11522;SDS011;70090;43.208;27.904;2023-11-18T07:04:31;16.90;;;14.13;;
11522;SDS011;70090;43.208;27.904;2023-11-18T07:06:58;14.63;;;12.27;;
11522;SDS011;70090;43.208;27.904;2023-11-18T07:09:25;16.70;;;14.90;;
11522;SDS011;70090;43.208;27.904;2023-11-18T07:11:52;14.60;;;11.57;;
11522;SDS011;70090;43.208;27.904;2023-11-18T07:14:21;15.53;;;13.80;;
11522;SDS011;70090;43.208;27.904;2023-11-18T07:16:49;13.03;;;11.60;;
11522;SDS011;70090;43.208;27.904;2023-11-18T07:19:16;13.13;;;10.93;;
11522;SDS011;70090;43.208;27.904;2023-11-18T07:21:45;12.73;;;10.00;;
11522;SDS011;70090;43.208;27.904;2023-11-18T07:24:12;9.70;;;8.33;;
11522;SDS011;70090;43.208;27.904;2023-11-18T07:26:39;11.57;;;10.37;;
11522;SDS011;70090;43.208;27.904;2023-11-18T07:29:06;11.53;;;10.43;;
11522;SDS011;70090;43.208;27.904;2023-11-18T07:31:33;10.10;;;9.03;;
11522;SDS011;70090;43.208;27.904;2023-11-18T07:34:02;8.97;;;7.93;;
11522;SDS011;70090;43.208;27.904;2023-11-18T07:36:30;9.17;;;8.17;;
11522;SDS011;70090;43.208;27.904;2023-11-18T07:38:58;10.27;;;7.43;;
11522;SDS011;70090;43.208;27.904;2023-11-18T07:41:26;11.73;;;10.53;;
11522;SDS011;70090;43.208;27.904;2023-11-18T07:43:53;9.00;;;8.10;;
11522;SDS011;70090;43.208;27.904;2023-11-18T07:46:21;11.00;;;9.90;;
11522;SDS011;70090;43.208;27.904;2023-11-18T07:48:48;13.97;;;11.97;;
11522;SDS011;70090;43.208;27.904;2023-11-18T07:51:18;10.53;;;8.90;;
11522;SDS011;70090;43.208;27.904;2023-11-18T07:53:46;12.90;;;11.60;;
11522;SDS011;70090;43.208;27.904;2023-11-18T07:56:13;13.00;;;11.63;;
11522;SDS011;70090;43.208;27.904;2023-11-18T07:58:41;11.30;;;10.10;;
11522;SDS011;70090;43.208;27.904;2023-11-18T08:01:10;9.40;;;8.50;;
11522;SDS011;70090;43.208;27.904;2023-11-18T08:03:38;9.87;;;8.87;;
11522;SDS011;70090;43.208;27.904;2023-11-18T08:06:08;10.57;;;9.47;;
11522;SDS011;70090;43.208;27.904;2023-11-18T08:08:38;13.00;;;11.70;;
11522;SDS011;70090;43.208;27.904;2023-11-18T08:11:06;12.17;;;10.13;;
11522;SDS011;70090;43.208;27.904;2023-11-18T08:13:33;11.00;;;9.90;;
11522;SDS011;70090;43.208;27.904;2023-11-18T08:16:00;9.07;;;7.90;;
11522;SDS011;70090;43.208;27.904;2023-11-18T08:18:27;8.07;;;7.27;;
11522;SDS011;70090;43.208;27.904;2023-11-18T08:20:56;8.27;;;7.40;;
11522;SDS011;70090;43.208;27.904;2023-11-18T08:23:25;6.63;;;6.03;;
11522;SDS011;70090;43.208;27.904;2023-11-18T08:25:54;7.73;;;6.70;;
11522;SDS011;70090;43.208;27.904;2023-11-18T08:28:21;6.37;;;5.77;;
11522;SDS011;70090;43.208;27.904;2023-11-18T08:30:48;5.97;;;5.47;;
11522;SDS011;70090;43.208;27.904;2023-11-18T08:33:16;6.93;;;6.23;;
11522;SDS011;70090;43.208;27.904;2023-11-18T08:35:43;8.90;;;7.43;;
11522;SDS011;70090;43.208;27.904;2023-11-18T08:38:11;7.40;;;6.70;;
11522;SDS011;70090;43.208;27.904;2023-11-18T08:40:38;5.70;;;4.93;;
11522;SDS011;70090;43.208;27.904;2023-11-18T08:43:07;6.63;;;5.70;;
11522;SDS011;70090;43.208;27.904;2023-11-18T08:45:34;9.60;;;7.60;;
11522;SDS011;70090;43.208;27.904;2023-11-18T08:48:03;7.57;;;6.77;;
11522;SDS011;70090;43.208;27.904;2023-11-18T08:50:32;6.70;;;6.00;;
11522;SDS011;70090;43.208;27.904;2023-11-18T08:53:00;7.17;;;6.20;;
11522;SDS011;70090;43.208;27.904;2023-11-18T08:55:30;8.47;;;7.67;;
11522;SDS011;70090;43.208;27.904;2023-11-18T08:58:17;10.60;;;7.50;;
11522;SDS011;70090;43.208;27.904;2023-11-18T09:00:53;6.70;;;6.00;;
11522;SDS011;70090;43.208;27.904;2023-11-18T09:03:27;10.47;;;9.30;;
11522;SDS011;70090;43.208;27.904;2023-11-18T09:05:54;10.07;;;8.67;;
11522;SDS011;70090;43.208;27.904;2023-11-18T09:08:24;6.73;;;6.03;;
11522;SDS011;70090;43.208;27.904;2023-11-18T09:10:52;6.50;;;5.80;;
11522;SDS011;70090;43.208;27.904;2023-11-18T09:13:22;6.67;;;5.97;;
11522;SDS011;70090;43.208;27.904;2023-11-18T09:15:50;8.10;;;6.27;;
11522;SDS011;70090;43.208;27.904;2023-11-18T09:18:17;14.17;;;8.23;;
11522;SDS011;70090;43.208;27.904;2023-11-18T09:20:46;8.47;;;6.03;;
11522;SDS011;70090;43.208;27.904;2023-11-18T09:23:13;8.07;;;5.93;;
11522;SDS011;70090;43.208;27.904;2023-11-18T09:25:41;5.00;;;4.53;;
11522;SDS011;70090;43.208;27.904;2023-11-18T09:28:12;6.40;;;5.70;;
11522;SDS011;70090;43.208;27.904;2023-11-18T09:30:41;5.87;;;5.27;;
11522;SDS011;70090;43.208;27.904;2023-11-18T09:33:16;6.27;;;5.67;;
11522;SDS011;70090;43.208;27.904;2023-11-18T09:35:51;6.87;;;5.73;;
11522;SDS011;70090;43.208;27.904;2023-11-18T09:38:23;7.67;;;6.63;;
11522;SDS011;70090;43.208;27.904;2023-11-18T09:40:53;7.47;;;5.90;;
11522;SDS011;70090;43.208;27.904;2023-11-18T09:43:20;6.97;;;5.43;;
11522;SDS011;70090;43.208;27.904;2023-11-18T09:45:51;6.63;;;6.03;;
11522;SDS011;70090;43.208;27.904;2023-11-18T09:48:21;7.70;;;6.00;;
11522;SDS011;70090;43.208;27.904;2023-11-18T09:50:51;8.40;;;7.10;;
11522;SDS011;70090;43.208;27.904;2023-11-18T09:53:19;4.10;;;3.40;;
11522;SDS011;70090;43.208;27.904;2023-11-18T09:55:54;3.93;;;3.53;;
11522;SDS011;70090;43.208;27.904;2023-11-18T09:58:29;6.53;;;5.27;;
11522;SDS011;70090;43.208;27.904;2023-11-18T10:01:07;7.43;;;5.07;;
11522;SDS011;70090;43.208;27.904;2023-11-18T10:03:39;6.83;;;6.13;;
11522;SDS011;70090;43.208;27.904;2023-11-18T10:06:08;6.23;;;4.80;;
11522;SDS011;70090;43.208;27.904;2023-11-18T10:08:36;6.23;;;5.43;;
11522;SDS011;70090;43.208;27.904;2023-11-18T10:11:04;7.07;;;5.53;;
11522;SDS011;70090;43.208;27.904;2023-11-18T10:13:34;7.53;;;5.67;;
11522;SDS011;70090;43.208;27.904;2023-11-18T10:16:07;5.00;;;4.50;;
11522;SDS011;70090;43.208;27.904;2023-11-18T10:18:35;6.07;;;4.17;;
11522;SDS011;70090;43.208;27.904;2023-11-18T10:21:02;6.60;;;5.90;;
11522;SDS011;70090;43.208;27.904;2023-11-18T10:23:33;6.17;;;5.50;;
11522;SDS011;70090;43.208;27.904;2023-11-18T10:26:03;5.03;;;4.50;;
11522;SDS011;70090;43.208;27.904;2023-11-18T10:28:32;8.70;;;7.77;;
11522;SDS011;70090;43.208;27.904;2023-11-18T10:31:03;5.23;;;4.30;;
11522;SDS011;70090;43.208;27.904;2023-11-18T10:33:35;6.07;;;5.03;;
11522;SDS011;70090;43.208;27.904;2023-11-18T10:36:03;5.27;;;4.70;;
11522;SDS011;70090;43.208;27.904;2023-11-18T10:38:38;8.23;;;5.67;;
11522;SDS011;70090;43.208;27.904;2023-11-18T10:41:08;7.97;;;6.07;;
11522;SDS011;70090;43.208;27.904;2023-11-18T10:43:37;6.87;;;5.93;;
11522;SDS011;70090;43.208;27.904;2023-11-18T10:46:07;4.77;;;4.20;;
11522;SDS011;70090;43.208;27.904;2023-11-18T10:48:43;6.77;;;6.07;;
11522;SDS011;70090;43.208;27.904;2023-11-18T10:51:13;9.50;;;6.70;;
11522;SDS011;70090;43.208;27.904;2023-11-18T10:53:41;8.77;;;7.30;;
11522;SDS011;70090;43.208;27.904;2023-11-18T10:56:18;6.07;;;5.03;;
11522;SDS011;70090;43.208;27.904;2023-11-18T10:58:51;9.03;;;7.80;;
11522;SDS011;70090;43.208;27.904;2023-11-18T11:01:26;8.87;;;7.97;;
11522;SDS011;70090;43.208;27.904;2023-11-18T11:03:56;6.90;;;5.53;;
11522;SDS011;70090;43.208;27.904;2023-11-18T11:06:23;7.67;;;6.60;;
11522;SDS011;70090;43.208;27.904;2023-11-18T11:08:50;7.80;;;7.00;;
11522;SDS011;70090;43.208;27.904;2023-11-18T11:11:19;8.30;;;7.27;;
11522;SDS011;70090;43.208;27.904;2023-11-18T11:13:49;10.30;;;8.40;;
11522;SDS011;70090;43.208;27.904;2023-11-18T11:16:18;7.40;;;6.63;;
11522;SDS011;70090;43.208;27.904;2023-11-18T11:18:48;6.40;;;5.80;;
11522;SDS011;70090;43.208;27.904;2023-11-18T11:21:24;7.53;;;5.97;;
11522;SDS011;70090;43.208;27.904;2023-11-18T11:23:55;7.17;;;6.47;;
11522;SDS011;70090;43.208;27.904;2023-11-18T11:26:30;9.27;;;7.20;;
11522;SDS011;70090;43.208;27.904;2023-11-18T11:29:07;8.00;;;6.50;;
11522;SDS011;70090;43.208;27.904;2023-11-18T11:31:46;7.83;;;5.40;;
11522;SDS011;70090;43.208;27.904;2023-11-18T11:34:18;7.60;;;6.40;;
11522;SDS011;70090;43.208;27.904;2023-11-18T11:36:50;9.27;;;7.30;;
11522;SDS011;70090;43.208;27.904;2023-11-18T11:39:20;8.17;;;7.20;;
11522;SDS011;70090;43.208;27.904;2023-11-18T11:41:50;7.83;;;6.57;;
11522;SDS011;70090;43.208;27.904;2023-11-18T11:44:21;6.13;;;4.93;;
11522;SDS011;70090;43.208;27.904;2023-11-18T11:46:54;8.97;;;7.60;;
11522;SDS011;70090;43.208;27.904;2023-11-18T11:49:21;6.90;;;5.63;;
11522;SDS011;70090;43.208;27.904;2023-11-18T11:51:56;7.90;;;6.33;;
11522;SDS011;70090;43.208;27.904;2023-11-18T11:54:31;6.20;;;4.80;;
11522;SDS011;70090;43.208;27.904;2023-11-18T11:57:04;6.30;;;4.83;;
11522;SDS011;70090;43.208;27.904;2023-11-18T11:59:35;6.20;;;4.53;;
11522;SDS011;70090;43.208;27.904;2023-11-18T12:02:21;7.40;;;5.03;;
11522;SDS011;70090;43.208;27.904;2023-11-18T12:04:50;6.10;;;3.70;;
11522;SDS011;70090;43.208;27.904;2023-11-18T12:07:20;6.60;;;5.37;;
11522;SDS011;70090;43.208;27.904;2023-11-18T12:09:48;7.23;;;3.63;;
11522;SDS011;70090;43.208;27.904;2023-11-18T12:12:19;4.83;;;3.90;;
11522;SDS011;70090;43.208;27.904;2023-11-18T12:14:52;8.47;;;5.97;;
11522;SDS011;70090;43.208;27.904;2023-11-18T12:17:21;4.97;;;4.20;;
11522;SDS011;70090;43.208;27.904;2023-11-18T12:19:49;6.57;;;4.80;;
11522;SDS011;70090;43.208;27.904;2023-11-18T12:22:25;7.50;;;4.57;;
11522;SDS011;70090;43.208;27.904;2023-11-18T12:28:11;5.17;;;4.60;;
11522;SDS011;70090;43.208;27.904;2023-11-18T12:30:42;4.50;;;3.77;;
11522;SDS011;70090;43.208;27.904;2023-11-18T12:33:21;7.00;;;4.03;;
11522;SDS011;70090;43.208;27.904;2023-11-18T12:39:08;4.80;;;3.67;;
11522;SDS011;70090;43.208;27.904;2023-11-18T12:42:01;5.20;;;4.20;;
11522;SDS011;70090;43.208;27.904;2023-11-18T12:44:37;4.70;;;4.00;;
11522;SDS011;70090;43.208;27.904;2023-11-18T12:47:09;4.10;;;3.33;;
11522;SDS011;70090;43.208;27.904;2023-11-18T12:49:43;5.43;;;3.87;;
11522;SDS011;70090;43.208;27.904;2023-11-18T12:52:15;6.60;;;3.53;;
11522;SDS011;70090;43.208;27.904;2023-11-18T12:54:45;6.53;;;3.80;;
11522;SDS011;70090;43.208;27.904;2023-11-18T12:57:16;3.77;;;2.87;;
11522;SDS011;70090;43.208;27.904;2023-11-18T12:59:43;2.67;;;2.20;;
11522;SDS011;70090;43.208;27.904;2023-11-18T13:02:11;7.53;;;2.33;;
11522;SDS011;70090;43.208;27.904;2023-11-18T13:04:44;3.10;;;2.40;;
11522;SDS011;70090;43.208;27.904;2023-11-18T13:07:12;3.33;;;2.77;;
11522;SDS011;70090;43.208;27.904;2023-11-18T13:09:40;3.77;;;2.50;;
11522;SDS011;70090;43.208;27.904;2023-11-18T13:12:11;4.23;;;2.73;;
11522;SDS011;70090;43.208;27.904;2023-11-18T13:14:41;4.87;;;2.30;;
11522;SDS011;70090;43.208;27.904;2023-11-18T13:17:08;3.83;;;2.67;;
11522;SDS011;70090;43.208;27.904;2023-11-18T13:19:37;6.17;;;3.03;;
11522;SDS011;70090;43.208;27.904;2023-11-18T13:22:05;4.27;;;2.70;;
11522;SDS011;70090;43.208;27.904;2023-11-18T13:24:34;3.93;;;3.00;;
11522;SDS011;70090;43.208;27.904;2023-11-18T13:27:01;4.50;;;3.50;;
11522;SDS011;70090;43.208;27.904;2023-11-18T13:29:30;4.03;;;2.57;;
11522;SDS011;70090;43.208;27.904;2023-11-18T13:31:58;3.67;;;2.53;;
11522;SDS011;70090;43.208;27.904;2023-11-18T13:34:28;2.33;;;1.87;;
11522;SDS011;70090;43.208;27.904;2023-11-18T13:36:58;2.77;;;1.30;;
11522;SDS011;70090;43.208;27.904;2023-11-18T13:39:25;4.27;;;2.20;;
11522;SDS011;70090;43.208;27.904;2023-11-18T13:41:53;1.80;;;1.33;;
11522;SDS011;70090;43.208;27.904;2023-11-18T13:44:34;2.27;;;1.60;;
11522;SDS011;70090;43.208;27.904;2023-11-18T13:47:04;1.23;;;1.13;;
11522;SDS011;70090;43.208;27.904;2023-11-18T13:49:31;4.40;;;2.73;;
11522;SDS011;70090;43.208;27.904;2023-11-18T13:52:00;2.43;;;1.87;;
11522;SDS011;70090;43.208;27.904;2023-11-18T13:54:27;4.50;;;2.70;;
11522;SDS011;70090;43.208;27.904;2023-11-18T13:56:55;3.00;;;2.07;;
11522;SDS011;70090;43.208;27.904;2023-11-18T13:59:24;3.07;;;2.07;;
11522;SDS011;70090;43.208;27.904;2023-11-18T14:01:53;4.10;;;2.73;;
11522;SDS011;70090;43.208;27.904;2023-11-18T14:04:22;2.47;;;1.70;;
11522;SDS011;70090;43.208;27.904;2023-11-18T14:06:53;3.53;;;2.50;;
11522;SDS011;70090;43.208;27.904;2023-11-18T14:09:23;4.30;;;2.23;;
11522;SDS011;70090;43.208;27.904;2023-11-18T14:11:50;3.83;;;2.80;;
11522;SDS011;70090;43.208;27.904;2023-11-18T14:14:17;3.97;;;2.53;;
11522;SDS011;70090;43.208;27.904;2023-11-18T14:16:44;5.60;;;3.73;;
11522;SDS011;70090;43.208;27.904;2023-11-18T14:19:13;5.17;;;3.50;;
11522;SDS011;70090;43.208;27.904;2023-11-18T14:21:39;2.17;;;1.67;;
11522;SDS011;70090;43.208;27.904;2023-11-18T14:24:07;3.43;;;2.27;;
11522;SDS011;70090;43.208;27.904;2023-11-18T14:26:36;4.20;;;2.90;;
11522;SDS011;70090;43.208;27.904;2023-11-18T14:29:05;4.13;;;3.17;;
11522;SDS011;70090;43.208;27.904;2023-11-18T14:31:32;4.37;;;3.53;;
11522;SDS011;70090;43.208;27.904;2023-11-18T14:33:59;4.50;;;2.47;;
11522;SDS011;70090;43.208;27.904;2023-11-18T14:36:27;3.27;;;2.43;;
11522;SDS011;70090;43.208;27.904;2023-11-18T14:38:55;3.17;;;1.80;;